CheckWX is a tool to help pilots better visualize weather data.  It is not intended as a substitute for an official pre-flight weather briefing.

18:29:45 UTC

KDWH METAR
David Wayne Hooks Memorial Airport
Houston, Texas, USA
Current

28 mins ago

KDWH 221802Z 10006KT 2SM BR OVC004 16/15 A2995 RMK AO2 T01560150
Observed
Feb-22 @ 18:02 UTC
Wind
  • 100° at 6 KTS
Visibility
2 SM
Flight Rules
LIFR
Conditions
Mist
Cloud Levels
  • Overcast at 400' AGL
Temperature
16°C / 61°F
Dewpoint
15°C / 59°F
Humidity
94%
Altimeter
29.95" Hg
Pressure
1014.22 hPa
Previous

37 mins ago

KDWH 221753Z 12005KT 2SM BR OVC004 15/15 A2996 RMK AO2 SLP142 T01500150 10156 20100 58006
Observed
Feb-22 @ 17:53 UTC
Wind
  • 120° at 5 KTS
Visibility
2 SM
Flight Rules
LIFR
Conditions
Mist
Cloud Levels
  • Overcast at 400' AGL
Temperature
15°C / 59°F
Dewpoint
15°C / 59°F
Humidity
100%
Altimeter
29.96" Hg
Pressure
1014.2 hPa
Previous

2 hours ago

KDWH 221653Z 10005KT 1SM BR OVC003 14/14 A2997 RMK AO2 SLP147 T01390139
Observed
Feb-22 @ 16:53 UTC
Wind
  • 100° at 5 KTS
Visibility
1 SM
Flight Rules
LIFR
Conditions
Mist
Cloud Levels
  • Overcast at 300' AGL
Temperature
14°C / 57°F
Dewpoint
14°C / 57°F
Humidity
100%
Altimeter
29.97" Hg
Pressure
1014.7 hPa